SARC/CNQ METAR and TAF weather

Enter ICAO airport designator
Station Type Date Time Source
SARC METAR 2020/01/28 21:00 UTC NOAA

SARC 282100Z 27009KT 9999 TS SCT035 FEW050CB BKN060 31/22 Q1006 RMK CB OBS TO NW


Station Type Date Time Source
SARC Decoded METAR 2020/01/28 21:00 UTC NOAA

Corrientes Aero., Argentina (SARC) 27-27S 058-46W 62M
Jan 28, 2020 - 04:00 PM EST / 2020.01.28 2100 UTC
Wind: from the W (270 degrees) at 10 MPH (9 KT):0
Visibility: greater than 7 mile(s):0
Sky conditions: mostly cloudy
Weather: thunder; Cumulonimbus clouds observed
Temperature: 87 F (31 C)
Heat index: 92.3 F (33.5 C):1
Dew Point: 71 F (22 C)
Relative Humidity: 58%
Pressure (altimeter): 29.71 in. Hg (1006 hPa)
ob: SARC 282100Z 27009KT 9999 TS SCT035 FEW050CB BKN060 31/22 Q1006 RMK CB OBS TO NW
cycle: 21

Station Type Date Time Source
SARC TAF 2019/12/07 22:55 UTC NOAA

TAF
AMD SARC 072155Z 0722/0818 09010KT 5000 FU NSC TX34/0818Z TN19/0809Z
BECMG 0724/0801 8000 NSC

Example: see airport list